sensor_id;sensor_type;location;lat;lon;timestamp;P1;durP1;ratioP1;P2;durP2;ratioP2
55497;SDS011;41357;52.806;18.268;2023-07-30T00:00:39;10.10;;;5.70;;
55497;SDS011;41357;52.806;18.268;2023-07-30T00:03:05;11.48;;;5.82;;
55497;SDS011;41357;52.806;18.268;2023-07-30T00:05:31;8.05;;;5.63;;
55497;SDS011;41357;52.806;18.268;2023-07-30T00:07:57;10.20;;;5.53;;
55497;SDS011;41357;52.806;18.268;2023-07-30T00:10:23;14.75;;;6.32;;
55497;SDS011;41357;52.806;18.268;2023-07-30T00:12:49;12.02;;;5.35;;
55497;SDS011;41357;52.806;18.268;2023-07-30T00:15:15;8.60;;;5.60;;
55497;SDS011;41357;52.806;18.268;2023-07-30T00:17:42;7.40;;;5.07;;
55497;SDS011;41357;52.806;18.268;2023-07-30T00:20:08;8.40;;;5.30;;
55497;SDS011;41357;52.806;18.268;2023-07-30T00:22:34;10.43;;;5.72;;
55497;SDS011;41357;52.806;18.268;2023-07-30T00:25:00;8.68;;;5.80;;
55497;SDS011;41357;52.806;18.268;2023-07-30T00:27:26;11.32;;;6.00;;
55497;SDS011;41357;52.806;18.268;2023-07-30T00:29:52;12.15;;;6.07;;
55497;SDS011;41357;52.806;18.268;2023-07-30T00:32:18;8.52;;;5.90;;
55497;SDS011;41357;52.806;18.268;2023-07-30T00:34:44;9.77;;;5.70;;
55497;SDS011;41357;52.806;18.268;2023-07-30T00:37:11;11.63;;;6.00;;
55497;SDS011;41357;52.806;18.268;2023-07-30T00:39:37;12.25;;;6.75;;
55497;SDS011;41357;52.806;18.268;2023-07-30T00:42:03;10.05;;;6.35;;
55497;SDS011;41357;52.806;18.268;2023-07-30T00:44:29;8.32;;;5.97;;
55497;SDS011;41357;52.806;18.268;2023-07-30T00:46:55;9.73;;;6.90;;
55497;SDS011;41357;52.806;18.268;2023-07-30T00:49:22;10.02;;;6.47;;
55497;SDS011;41357;52.806;18.268;2023-07-30T00:51:48;18.50;;;6.90;;
55497;SDS011;41357;52.806;18.268;2023-07-30T00:54:14;10.35;;;6.20;;
55497;SDS011;41357;52.806;18.268;2023-07-30T00:56:41;13.27;;;6.38;;
55497;SDS011;41357;52.806;18.268;2023-07-30T00:59:13;12.05;;;6.93;;
55497;SDS011;41357;52.806;18.268;2023-07-30T01:01:39;13.70;;;7.57;;
55497;SDS011;41357;52.806;18.268;2023-07-30T01:04:06;14.32;;;7.05;;
55497;SDS011;41357;52.806;18.268;2023-07-30T01:06:32;13.93;;;6.95;;
55497;SDS011;41357;52.806;18.268;2023-07-30T01:08:59;10.88;;;6.75;;
55497;SDS011;41357;52.806;18.268;2023-07-30T01:11:25;12.38;;;6.47;;
55497;SDS011;41357;52.806;18.268;2023-07-30T01:13:52;12.23;;;7.53;;
55497;SDS011;41357;52.806;18.268;2023-07-30T01:16:18;12.18;;;6.80;;
55497;SDS011;41357;52.806;18.268;2023-07-30T01:18:44;11.77;;;6.63;;
55497;SDS011;41357;52.806;18.268;2023-07-30T01:21:11;11.40;;;7.07;;
55497;SDS011;41357;52.806;18.268;2023-07-30T01:23:37;10.20;;;7.00;;
55497;SDS011;41357;52.806;18.268;2023-07-30T01:26:07;10.80;;;7.82;;
55497;SDS011;41357;52.806;18.268;2023-07-30T01:28:36;12.07;;;7.68;;
55497;SDS011;41357;52.806;18.268;2023-07-30T01:31:03;16.08;;;7.10;;
55497;SDS011;41357;52.806;18.268;2023-07-30T01:33:30;13.75;;;7.55;;
55497;SDS011;41357;52.806;18.268;2023-07-30T01:35:57;12.95;;;6.93;;
55497;SDS011;41357;52.806;18.268;2023-07-30T01:38:25;12.23;;;7.07;;
55497;SDS011;41357;52.806;18.268;2023-07-30T01:40:51;15.88;;;6.40;;
55497;SDS011;41357;52.806;18.268;2023-07-30T01:43:18;10.05;;;7.28;;
55497;SDS011;41357;52.806;18.268;2023-07-30T01:45:44;8.55;;;6.82;;
55497;SDS011;41357;52.806;18.268;2023-07-30T01:48:10;12.27;;;7.28;;
55497;SDS011;41357;52.806;18.268;2023-07-30T01:50:36;13.95;;;7.15;;
55497;SDS011;41357;52.806;18.268;2023-07-30T01:53:02;13.77;;;7.45;;
55497;SDS011;41357;52.806;18.268;2023-07-30T01:55:29;15.70;;;7.85;;
55497;SDS011;41357;52.806;18.268;2023-07-30T01:57:55;11.40;;;8.13;;
55497;SDS011;41357;52.806;18.268;2023-07-30T02:00:22;17.58;;;9.30;;
55497;SDS011;41357;52.806;18.268;2023-07-30T02:02:48;14.80;;;8.88;;
55497;SDS011;41357;52.806;18.268;2023-07-30T02:05:14;16.42;;;8.73;;
55497;SDS011;41357;52.806;18.268;2023-07-30T02:07:40;12.90;;;7.85;;
55497;SDS011;41357;52.806;18.268;2023-07-30T02:10:06;13.95;;;8.38;;
55497;SDS011;41357;52.806;18.268;2023-07-30T02:12:33;10.88;;;7.70;;
55497;SDS011;41357;52.806;18.268;2023-07-30T02:14:59;16.15;;;7.78;;
55497;SDS011;41357;52.806;18.268;2023-07-30T02:17:25;10.38;;;7.75;;
55497;SDS011;41357;52.806;18.268;2023-07-30T02:19:51;10.82;;;6.80;;
55497;SDS011;41357;52.806;18.268;2023-07-30T02:22:17;9.60;;;7.20;;
55497;SDS011;41357;52.806;18.268;2023-07-30T02:24:43;16.30;;;8.25;;
55497;SDS011;41357;52.806;18.268;2023-07-30T02:27:09;11.05;;;7.18;;
55497;SDS011;41357;52.806;18.268;2023-07-30T02:29:35;10.85;;;7.22;;
55497;SDS011;41357;52.806;18.268;2023-07-30T02:32:02;8.73;;;6.72;;
55497;SDS011;41357;52.806;18.268;2023-07-30T02:34:28;14.15;;;7.82;;
55497;SDS011;41357;52.806;18.268;2023-07-30T02:36:54;11.80;;;7.28;;
55497;SDS011;41357;52.806;18.268;2023-07-30T02:39:20;16.02;;;7.95;;
55497;SDS011;41357;52.806;18.268;2023-07-30T02:41:46;9.77;;;7.65;;
55497;SDS011;41357;52.806;18.268;2023-07-30T02:44:12;12.18;;;7.55;;
55497;SDS011;41357;52.806;18.268;2023-07-30T02:46:38;13.57;;;7.90;;
55497;SDS011;41357;52.806;18.268;2023-07-30T02:49:04;15.40;;;7.68;;
55497;SDS011;41357;52.806;18.268;2023-07-30T02:51:30;13.20;;;8.90;;
55497;SDS011;41357;52.806;18.268;2023-07-30T02:54:03;17.42;;;8.77;;
55497;SDS011;41357;52.806;18.268;2023-07-30T02:56:29;17.25;;;8.35;;
55497;SDS011;41357;52.806;18.268;2023-07-30T02:58:56;11.52;;;8.20;;
55497;SDS011;41357;52.806;18.268;2023-07-30T03:01:23;15.07;;;9.45;;
55497;SDS011;41357;52.806;18.268;2023-07-30T03:03:49;10.85;;;8.57;;
55497;SDS011;41357;52.806;18.268;2023-07-30T03:06:15;13.13;;;8.75;;
55497;SDS011;41357;52.806;18.268;2023-07-30T03:08:42;16.98;;;8.90;;
55497;SDS011;41357;52.806;18.268;2023-07-30T03:11:09;18.75;;;9.93;;
55497;SDS011;41357;52.806;18.268;2023-07-30T03:13:35;13.85;;;9.02;;
55497;SDS011;41357;52.806;18.268;2023-07-30T03:16:01;15.98;;;10.40;;
55497;SDS011;41357;52.806;18.268;2023-07-30T03:18:27;19.58;;;9.50;;
55497;SDS011;41357;52.806;18.268;2023-07-30T03:20:59;16.27;;;9.50;;
55497;SDS011;41357;52.806;18.268;2023-07-30T03:23:26;15.77;;;10.32;;
55497;SDS011;41357;52.806;18.268;2023-07-30T03:25:52;18.58;;;9.23;;
55497;SDS011;41357;52.806;18.268;2023-07-30T03:28:18;17.35;;;9.27;;
55497;SDS011;41357;52.806;18.268;2023-07-30T03:30:44;18.95;;;8.43;;
55497;SDS011;41357;52.806;18.268;2023-07-30T03:33:10;15.25;;;9.20;;
55497;SDS011;41357;52.806;18.268;2023-07-30T03:35:36;16.75;;;8.75;;
55497;SDS011;41357;52.806;18.268;2023-07-30T03:38:02;19.10;;;9.43;;
55497;SDS011;41357;52.806;18.268;2023-07-30T03:40:28;18.77;;;9.15;;
55497;SDS011;41357;52.806;18.268;2023-07-30T03:42:55;18.27;;;9.30;;
55497;SDS011;41357;52.806;18.268;2023-07-30T03:45:21;16.30;;;9.38;;
55497;SDS011;41357;52.806;18.268;2023-07-30T03:47:47;19.20;;;10.15;;
55497;SDS011;41357;52.806;18.268;2023-07-30T03:50:13;18.38;;;9.88;;
55497;SDS011;41357;52.806;18.268;2023-07-30T03:52:39;23.50;;;10.10;;
55497;SDS011;41357;52.806;18.268;2023-07-30T03:55:05;15.45;;;10.02;;
55497;SDS011;41357;52.806;18.268;2023-07-30T03:57:31;16.52;;;9.40;;
55497;SDS011;41357;52.806;18.268;2023-07-30T03:59:57;23.45;;;10.32;;
55497;SDS011;41357;52.806;18.268;2023-07-30T04:02:23;20.52;;;10.38;;
55497;SDS011;41357;52.806;18.268;2023-07-30T04:04:49;19.25;;;9.50;;
55497;SDS011;41357;52.806;18.268;2023-07-30T04:07:16;21.65;;;9.95;;
55497;SDS011;41357;52.806;18.268;2023-07-30T04:09:42;18.77;;;10.73;;
55497;SDS011;41357;52.806;18.268;2023-07-30T04:12:08;24.58;;;10.60;;
55497;SDS011;41357;52.806;18.268;2023-07-30T04:14:34;17.25;;;10.10;;
55497;SDS011;41357;52.806;18.268;2023-07-30T04:17:00;17.13;;;10.60;;
55497;SDS011;41357;52.806;18.268;2023-07-30T04:19:26;19.70;;;10.77;;
55497;SDS011;41357;52.806;18.268;2023-07-30T04:21:52;18.05;;;10.93;;
55497;SDS011;41357;52.806;18.268;2023-07-30T04:24:18;23.00;;;11.02;;
55497;SDS011;41357;52.806;18.268;2023-07-30T04:26:44;24.52;;;11.90;;
55497;SDS011;41357;52.806;18.268;2023-07-30T04:29:10;20.33;;;10.52;;
55497;SDS011;41357;52.806;18.268;2023-07-30T04:31:38;21.58;;;12.07;;
55497;SDS011;41357;52.806;18.268;2023-07-30T04:34:04;18.05;;;10.63;;
55497;SDS011;41357;52.806;18.268;2023-07-30T04:36:31;20.02;;;11.02;;
55497;SDS011;41357;52.806;18.268;2023-07-30T04:38:57;18.15;;;11.30;;
55497;SDS011;41357;52.806;18.268;2023-07-30T04:41:23;21.05;;;10.93;;
55497;SDS011;41357;52.806;18.268;2023-07-30T04:43:49;25.95;;;12.55;;
55497;SDS011;41357;52.806;18.268;2023-07-30T04:46:16;19.02;;;11.15;;
55497;SDS011;41357;52.806;18.268;2023-07-30T04:48:44;25.60;;;12.75;;
55497;SDS011;41357;52.806;18.268;2023-07-30T04:51:10;37.75;;;12.80;;
55497;SDS011;41357;52.806;18.268;2023-07-30T04:53:37;20.92;;;13.10;;
55497;SDS011;41357;52.806;18.268;2023-07-30T04:56:03;23.00;;;13.05;;
55497;SDS011;41357;52.806;18.268;2023-07-30T04:58:29;24.65;;;13.70;;
55497;SDS011;41357;52.806;18.268;2023-07-30T05:00:55;27.73;;;14.25;;
55497;SDS011;41357;52.806;18.268;2023-07-30T05:03:21;26.15;;;14.10;;
55497;SDS011;41357;52.806;18.268;2023-07-30T05:05:48;22.85;;;13.02;;
55497;SDS011;41357;52.806;18.268;2023-07-30T05:08:17;29.05;;;13.60;;
55497;SDS011;41357;52.806;18.268;2023-07-30T05:10:43;27.00;;;13.27;;
55497;SDS011;41357;52.806;18.268;2023-07-30T05:13:09;28.52;;;12.65;;
55497;SDS011;41357;52.806;18.268;2023-07-30T05:15:37;17.23;;;10.93;;
55497;SDS011;41357;52.806;18.268;2023-07-30T05:18:04;18.33;;;10.52;;
55497;SDS011;41357;52.806;18.268;2023-07-30T05:20:30;19.95;;;10.27;;
55497;SDS011;41357;52.806;18.268;2023-07-30T05:22:56;15.98;;;8.38;;
55497;SDS011;41357;52.806;18.268;2023-07-30T05:25:22;12.82;;;8.65;;
55497;SDS011;41357;52.806;18.268;2023-07-30T05:27:49;12.85;;;8.75;;
55497;SDS011;41357;52.806;18.268;2023-07-30T05:30:15;14.02;;;8.13;;
55497;SDS011;41357;52.806;18.268;2023-07-30T05:32:41;14.13;;;8.43;;
55497;SDS011;41357;52.806;18.268;2023-07-30T05:35:07;12.23;;;8.82;;
55497;SDS011;41357;52.806;18.268;2023-07-30T05:37:36;11.77;;;8.27;;
55497;SDS011;41357;52.806;18.268;2023-07-30T05:40:02;15.48;;;10.10;;
55497;SDS011;41357;52.806;18.268;2023-07-30T05:42:29;16.25;;;9.38;;
55497;SDS011;41357;52.806;18.268;2023-07-30T05:44:55;16.52;;;9.93;;
55497;SDS011;41357;52.806;18.268;2023-07-30T05:47:22;15.90;;;9.88;;
55497;SDS011;41357;52.806;18.268;2023-07-30T05:49:48;17.58;;;9.90;;
55497;SDS011;41357;52.806;18.268;2023-07-30T05:52:14;18.30;;;10.02;;
55497;SDS011;41357;52.806;18.268;2023-07-30T05:54:40;16.67;;;10.10;;
55497;SDS011;41357;52.806;18.268;2023-07-30T05:57:06;15.10;;;10.25;;
55497;SDS011;41357;52.806;18.268;2023-07-30T05:59:32;16.55;;;10.57;;
55497;SDS011;41357;52.806;18.268;2023-07-30T06:02:01;15.70;;;10.95;;
55497;SDS011;41357;52.806;18.268;2023-07-30T06:04:28;14.35;;;10.23;;
55497;SDS011;41357;52.806;18.268;2023-07-30T06:06:54;15.23;;;10.52;;
55497;SDS011;41357;52.806;18.268;2023-07-30T06:09:20;13.38;;;8.82;;
55497;SDS011;41357;52.806;18.268;2023-07-30T06:11:46;10.95;;;8.75;;
55497;SDS011;41357;52.806;18.268;2023-07-30T06:14:12;13.30;;;9.43;;
55497;SDS011;41357;52.806;18.268;2023-07-30T06:16:41;20.23;;;9.95;;
55497;SDS011;41357;52.806;18.268;2023-07-30T06:19:08;15.52;;;10.13;;
55497;SDS011;41357;52.806;18.268;2023-07-30T06:21:34;13.38;;;10.15;;
55497;SDS011;41357;52.806;18.268;2023-07-30T06:24:00;12.63;;;9.48;;
55497;SDS011;41357;52.806;18.268;2023-07-30T06:26:26;13.15;;;10.07;;
55497;SDS011;41357;52.806;18.268;2023-07-30T06:28:53;11.43;;;9.23;;
55497;SDS011;41357;52.806;18.268;2023-07-30T06:31:19;12.15;;;9.68;;
55497;SDS011;41357;52.806;18.268;2023-07-30T06:33:45;11.50;;;9.00;;
55497;SDS011;41357;52.806;18.268;2023-07-30T06:36:11;12.20;;;8.93;;
55497;SDS011;41357;52.806;18.268;2023-07-30T06:38:37;14.23;;;9.40;;
55497;SDS011;41357;52.806;18.268;2023-07-30T06:41:03;16.83;;;8.68;;
55497;SDS011;41357;52.806;18.268;2023-07-30T06:43:29;14.30;;;8.25;;
55497;SDS011;41357;52.806;18.268;2023-07-30T06:45:55;10.98;;;8.88;;
55497;SDS011;41357;52.806;18.268;2023-07-30T06:48:21;11.23;;;9.18;;
55497;SDS011;41357;52.806;18.268;2023-07-30T06:50:48;19.75;;;8.95;;
55497;SDS011;41357;52.806;18.268;2023-07-30T06:53:14;11.13;;;7.97;;
55497;SDS011;41357;52.806;18.268;2023-07-30T06:55:40;9.63;;;8.20;;
55497;SDS011;41357;52.806;18.268;2023-07-30T06:58:06;13.02;;;8.32;;
55497;SDS011;41357;52.806;18.268;2023-07-30T07:00:32;12.65;;;8.25;;
55497;SDS011;41357;52.806;18.268;2023-07-30T07:02:58;14.95;;;8.40;;
55497;SDS011;41357;52.806;18.268;2023-07-30T07:05:24;11.05;;;8.27;;
55497;SDS011;41357;52.806;18.268;2023-07-30T07:07:51;8.65;;;7.75;;
55497;SDS011;41357;52.806;18.268;2023-07-30T07:10:17;8.95;;;7.00;;
55497;SDS011;41357;52.806;18.268;2023-07-30T07:12:43;10.52;;;7.30;;
55497;SDS011;41357;52.806;18.268;2023-07-30T07:15:09;14.98;;;8.18;;
55497;SDS011;41357;52.806;18.268;2023-07-30T07:17:35;10.27;;;8.25;;
55497;SDS011;41357;52.806;18.268;2023-07-30T07:20:01;10.20;;;7.78;;
55497;SDS011;41357;52.806;18.268;2023-07-30T07:22:30;12.80;;;8.55;;
55497;SDS011;41357;52.806;18.268;2023-07-30T07:24:56;9.93;;;7.28;;
55497;SDS011;41357;52.806;18.268;2023-07-30T07:27:22;11.38;;;7.63;;
55497;SDS011;41357;52.806;18.268;2023-07-30T07:29:49;8.75;;;7.53;;
55497;SDS011;41357;52.806;18.268;2023-07-30T07:32:16;13.10;;;7.20;;
55497;SDS011;41357;52.806;18.268;2023-07-30T07:34:45;9.15;;;6.88;;
55497;SDS011;41357;52.806;18.268;2023-07-30T07:37:12;10.55;;;6.82;;
55497;SDS011;41357;52.806;18.268;2023-07-30T07:39:40;8.70;;;6.15;;
55497;SDS011;41357;52.806;18.268;2023-07-30T07:42:06;12.23;;;6.47;;
55497;SDS011;41357;52.806;18.268;2023-07-30T07:44:32;9.50;;;5.68;;
55497;SDS011;41357;52.806;18.268;2023-07-30T07:46:58;7.97;;;5.38;;
55497;SDS011;41357;52.806;18.268;2023-07-30T07:49:25;10.98;;;5.40;;
55497;SDS011;41357;52.806;18.268;2023-07-30T07:51:51;10.55;;;7.25;;
55497;SDS011;41357;52.806;18.268;2023-07-30T07:54:17;7.15;;;6.43;;
55497;SDS011;41357;52.806;18.268;2023-07-30T07:56:43;8.73;;;6.22;;
55497;SDS011;41357;52.806;18.268;2023-07-30T07:59:09;14.57;;;7.88;;
55497;SDS011;41357;52.806;18.268;2023-07-30T08:01:35;10.32;;;8.50;;
55497;SDS011;41357;52.806;18.268;2023-07-30T08:04:01;12.93;;;9.95;;
55497;SDS011;41357;52.806;18.268;2023-07-30T08:06:28;18.45;;;9.73;;
55497;SDS011;41357;52.806;18.268;2023-07-30T08:08:54;10.65;;;7.38;;
55497;SDS011;41357;52.806;18.268;2023-07-30T08:11:22;9.07;;;6.53;;
55497;SDS011;41357;52.806;18.268;2023-07-30T08:13:48;10.65;;;6.97;;
55497;SDS011;41357;52.806;18.268;2023-07-30T08:16:14;13.38;;;6.32;;
55497;SDS011;41357;52.806;18.268;2023-07-30T08:18:40;8.18;;;7.28;;
55497;SDS011;41357;52.806;18.268;2023-07-30T08:21:07;8.23;;;6.05;;
55497;SDS011;41357;52.806;18.268;2023-07-30T08:23:33;8.73;;;6.25;;
55497;SDS011;41357;52.806;18.268;2023-07-30T08:25:59;12.55;;;8.73;;
55497;SDS011;41357;52.806;18.268;2023-07-30T08:28:25;10.02;;;7.68;;
55497;SDS011;41357;52.806;18.268;2023-07-30T08:30:51;11.15;;;8.43;;
55497;SDS011;41357;52.806;18.268;2023-07-30T08:33:17;8.88;;;7.15;;
55497;SDS011;41357;52.806;18.268;2023-07-30T08:35:43;9.73;;;6.15;;
55497;SDS011;41357;52.806;18.268;2023-07-30T08:38:09;8.10;;;5.43;;
55497;SDS011;41357;52.806;18.268;2023-07-30T08:40:35;8.23;;;4.60;;
55497;SDS011;41357;52.806;18.268;2023-07-30T08:43:02;5.25;;;4.75;;
55497;SDS011;41357;52.806;18.268;2023-07-30T08:45:29;6.88;;;5.15;;
55497;SDS011;41357;52.806;18.268;2023-07-30T08:47:55;8.68;;;5.50;;
55497;SDS011;41357;52.806;18.268;2023-07-30T08:50:22;9.65;;;6.10;;
55497;SDS011;41357;52.806;18.268;2023-07-30T08:52:51;8.45;;;6.53;;
55497;SDS011;41357;52.806;18.268;2023-07-30T08:55:17;6.03;;;4.93;;
55497;SDS011;41357;52.806;18.268;2023-07-30T08:57:44;5.97;;;5.20;;
55497;SDS011;41357;52.806;18.268;2023-07-30T09:00:11;6.60;;;5.40;;
55497;SDS011;41357;52.806;18.268;2023-07-30T09:02:38;5.78;;;4.93;;
55497;SDS011;41357;52.806;18.268;2023-07-30T09:05:04;9.82;;;5.43;;
55497;SDS011;41357;52.806;18.268;2023-07-30T09:07:31;7.55;;;5.63;;
55497;SDS011;41357;52.806;18.268;2023-07-30T09:09:58;8.57;;;5.88;;
55497;SDS011;41357;52.806;18.268;2023-07-30T09:12:31;9.57;;;5.30;;
55497;SDS011;41357;52.806;18.268;2023-07-30T09:14:58;11.85;;;6.50;;
55497;SDS011;41357;52.806;18.268;2023-07-30T09:17:24;6.88;;;5.50;;
55497;SDS011;41357;52.806;18.268;2023-07-30T09:19:51;5.88;;;5.10;;
55497;SDS011;41357;52.806;18.268;2023-07-30T09:22:24;6.22;;;5.40;;
55497;SDS011;41357;52.806;18.268;2023-07-30T09:24:51;8.35;;;5.93;;
55497;SDS011;41357;52.806;18.268;2023-07-30T09:27:21;7.75;;;5.68;;
55497;SDS011;41357;52.806;18.268;2023-07-30T09:29:51;10.70;;;6.10;;
55497;SDS011;41357;52.806;18.268;2023-07-30T09:32:18;10.27;;;5.57;;
55497;SDS011;41357;52.806;18.268;2023-07-30T09:34:44;11.90;;;6.22;;
55497;SDS011;41357;52.806;18.268;2023-07-30T09:37:10;10.45;;;6.90;;
55497;SDS011;41357;52.806;18.268;2023-07-30T09:39:37;6.13;;;5.53;;
55497;SDS011;41357;52.806;18.268;2023-07-30T09:42:03;5.68;;;4.05;;
55497;SDS011;41357;52.806;18.268;2023-07-30T09:44:33;6.78;;;5.35;;
55497;SDS011;41357;52.806;18.268;2023-07-30T09:47:00;7.18;;;4.40;;
55497;SDS011;41357;52.806;18.268;2023-07-30T09:49:30;5.07;;;4.53;;
55497;SDS011;41357;52.806;18.268;2023-07-30T09:51:57;5.82;;;4.07;;
55497;SDS011;41357;52.806;18.268;2023-07-30T09:54:23;10.50;;;4.80;;
55497;SDS011;41357;52.806;18.268;2023-07-30T09:56:49;6.82;;;4.65;;
55497;SDS011;41357;52.806;18.268;2023-07-30T09:59:16;5.07;;;4.10;;
55497;SDS011;41357;52.806;18.268;2023-07-30T10:01:43;5.40;;;3.83;;
55497;SDS011;41357;52.806;18.268;2023-07-30T10:04:10;8.32;;;3.80;;
55497;SDS011;41357;52.806;18.268;2023-07-30T10:06:46;4.22;;;3.80;;
55497;SDS011;41357;52.806;18.268;2023-07-30T10:09:14;4.53;;;3.58;;
55497;SDS011;41357;52.806;18.268;2023-07-30T10:11:41;5.00;;;3.75;;
55497;SDS011;41357;52.806;18.268;2023-07-30T10:14:14;4.40;;;3.55;;
55497;SDS011;41357;52.806;18.268;2023-07-30T10:16:49;8.45;;;3.10;;
55497;SDS011;41357;52.806;18.268;2023-07-30T10:19:15;5.43;;;3.40;;
55497;SDS011;41357;52.806;18.268;2023-07-30T10:21:43;7.47;;;3.47;;
55497;SDS011;41357;52.806;18.268;2023-07-30T10:24:09;3.92;;;3.25;;
55497;SDS011;41357;52.806;18.268;2023-07-30T10:26:35;3.95;;;3.17;;
55497;SDS011;41357;52.806;18.268;2023-07-30T10:29:12;8.90;;;3.40;;
55497;SDS011;41357;52.806;18.268;2023-07-30T10:31:39;8.85;;;3.35;;
55497;SDS011;41357;52.806;18.268;2023-07-30T10:34:09;7.18;;;2.83;;
55497;SDS011;41357;52.806;18.268;2023-07-30T10:36:40;7.75;;;2.58;;
55497;SDS011;41357;52.806;18.268;2023-07-30T10:39:16;6.70;;;3.03;;
55497;SDS011;41357;52.806;18.268;2023-07-30T10:41:46;2.95;;;2.40;;
55497;SDS011;41357;52.806;18.268;2023-07-30T10:44:27;4.15;;;3.00;;
55497;SDS011;41357;52.806;18.268;2023-07-30T10:46:55;3.00;;;2.70;;
55497;SDS011;41357;52.806;18.268;2023-07-30T10:49:21;3.83;;;2.22;;
55497;SDS011;41357;52.806;18.268;2023-07-30T10:51:47;3.40;;;2.40;;
55497;SDS011;41357;52.806;18.268;2023-07-30T10:54:14;2.88;;;2.22;;
55497;SDS011;41357;52.806;18.268;2023-07-30T10:56:41;3.40;;;2.50;;
55497;SDS011;41357;52.806;18.268;2023-07-30T10:59:08;5.25;;;1.75;;
55497;SDS011;41357;52.806;18.268;2023-07-30T11:01:37;2.15;;;1.90;;
55497;SDS011;41357;52.806;18.268;2023-07-30T11:04:14;2.45;;;1.48;;
55497;SDS011;41357;52.806;18.268;2023-07-30T11:06:44;5.70;;;1.90;;
55497;SDS011;41357;52.806;18.268;2023-07-30T11:09:25;2.53;;;1.83;;
55497;SDS011;41357;52.806;18.268;2023-07-30T11:11:53;2.10;;;1.90;;
55497;SDS011;41357;52.806;18.268;2023-07-30T11:14:20;3.72;;;1.85;;
55497;SDS011;41357;52.806;18.268;2023-07-30T11:16:48;2.30;;;1.98;;
55497;SDS011;41357;52.806;18.268;2023-07-30T11:19:15;2.83;;;2.05;;
55497;SDS011;41357;52.806;18.268;2023-07-30T11:21:45;3.58;;;1.88;;
55497;SDS011;41357;52.806;18.268;2023-07-30T11:24:11;4.20;;;2.33;;
55497;SDS011;41357;52.806;18.268;2023-07-30T11:26:40;4.45;;;2.17;;
55497;SDS011;41357;52.806;18.268;2023-07-30T11:29:19;3.15;;;2.15;;
55497;SDS011;41357;52.806;18.268;2023-07-30T11:31:46;2.20;;;1.70;;
55497;SDS011;41357;52.806;18.268;2023-07-30T11:34:13;2.42;;;1.70;;
55497;SDS011;41357;52.806;18.268;2023-07-30T11:36:40;4.85;;;1.88;;
55497;SDS011;41357;52.806;18.268;2023-07-30T11:39:06;4.78;;;1.70;;
55497;SDS011;41357;52.806;18.268;2023-07-30T11:41:33;5.45;;;1.90;;
55497;SDS011;41357;52.806;18.268;2023-07-30T11:43:59;2.88;;;2.00;;
55497;SDS011;41357;52.806;18.268;2023-07-30T11:46:25;3.05;;;1.80;;
55497;SDS011;41357;52.806;18.268;2023-07-30T11:48:53;4.55;;;2.00;;
55497;SDS011;41357;52.806;18.268;2023-07-30T11:51:26;7.20;;;2.03;;
55497;SDS011;41357;52.806;18.268;2023-07-30T11:53:56;5.10;;;2.10;;
55497;SDS011;41357;52.806;18.268;2023-07-30T11:56:24;2.28;;;1.70;;
55497;SDS011;41357;52.806;18.268;2023-07-30T11:58:55;2.33;;;1.95;;
55497;SDS011;41357;52.806;18.268;2023-07-30T12:01:23;2.05;;;1.40;;
55497;SDS011;41357;52.806;18.268;2023-07-30T12:03:49;2.47;;;1.60;;
55497;SDS011;41357;52.806;18.268;2023-07-30T12:06:15;6.50;;;1.63;;
55497;SDS011;41357;52.806;18.268;2023-07-30T12:08:41;8.55;;;1.60;;
55497;SDS011;41357;52.806;18.268;2023-07-30T12:11:08;1.95;;;1.45;;
55497;SDS011;41357;52.806;18.268;2023-07-30T12:13:42;1.83;;;1.50;;
55497;SDS011;41357;52.806;18.268;2023-07-30T12:16:10;2.88;;;1.50;;
55497;SDS011;41357;52.806;18.268;2023-07-30T12:18:37;2.05;;;1.58;;
55497;SDS011;41357;52.806;18.268;2023-07-30T12:21:05;3.13;;;1.58;;
55497;SDS011;41357;52.806;18.268;2023-07-30T12:23:32;2.35;;;1.83;;
55497;SDS011;41357;52.806;18.268;2023-07-30T12:25:59;3.50;;;1.50;;
55497;SDS011;41357;52.806;18.268;2023-07-30T12:28:25;3.22;;;1.15;;
55497;SDS011;41357;52.806;18.268;2023-07-30T12:30:51;1.90;;;1.50;;
55497;SDS011;41357;52.806;18.268;2023-07-30T12:33:17;1.70;;;1.25;;
55497;SDS011;41357;52.806;18.268;2023-07-30T12:35:44;2.30;;;1.30;;
55497;SDS011;41357;52.806;18.268;2023-07-30T12:38:10;2.33;;;1.50;;
55497;SDS011;41357;52.806;18.268;2023-07-30T12:40:36;2.60;;;1.48;;
55497;SDS011;41357;52.806;18.268;2023-07-30T12:43:02;2.03;;;1.50;;
55497;SDS011;41357;52.806;18.268;2023-07-30T12:45:29;1.67;;;1.40;;
55497;SDS011;41357;52.806;18.268;2023-07-30T12:47:57;4.22;;;1.60;;
55497;SDS011;41357;52.806;18.268;2023-07-30T12:50:23;2.17;;;1.42;;
55497;SDS011;41357;52.806;18.268;2023-07-30T12:52:49;1.70;;;1.40;;
55497;SDS011;41357;52.806;18.268;2023-07-30T12:55:15;1.65;;;1.35;;
55497;SDS011;41357;52.806;18.268;2023-07-30T12:57:41;1.40;;;1.30;;
55497;SDS011;41357;52.806;18.268;2023-07-30T13:00:08;1.75;;;1.55;;
55497;SDS011;41357;52.806;18.268;2023-07-30T13:02:34;1.63;;;1.30;;
55497;SDS011;41357;52.806;18.268;2023-07-30T13:05:01;1.52;;;1.20;;
55497;SDS011;41357;52.806;18.268;2023-07-30T13:07:29;2.03;;;1.45;;
55497;SDS011;41357;52.806;18.268;2023-07-30T13:10:08;3.25;;;1.50;;
55497;SDS011;41357;52.806;18.268;2023-07-30T13:12:34;2.67;;;1.48;;
55497;SDS011;41357;52.806;18.268;2023-07-30T13:15:01;4.22;;;1.40;;
55497;SDS011;41357;52.806;18.268;2023-07-30T13:17:28;5.25;;;1.60;;
55497;SDS011;41357;52.806;18.268;2023-07-30T13:19:54;2.67;;;1.75;;
55497;SDS011;41357;52.806;18.268;2023-07-30T13:22:20;1.30;;;1.20;;
55497;SDS011;41357;52.806;18.268;2023-07-30T13:24:46;2.15;;;1.50;;
55497;SDS011;41357;52.806;18.268;2023-07-30T13:27:13;4.55;;;1.63;;
55497;SDS011;41357;52.806;18.268;2023-07-30T13:29:39;2.40;;;1.50;;
55497;SDS011;41357;52.806;18.268;2023-07-30T13:32:06;2.30;;;1.83;;
55497;SDS011;41357;52.806;18.268;2023-07-30T13:34:32;2.15;;;1.63;;
55497;SDS011;41357;52.806;18.268;2023-07-30T13:36:58;2.78;;;1.80;;
55497;SDS011;41357;52.806;18.268;2023-07-30T13:39:24;3.95;;;1.60;;
55497;SDS011;41357;52.806;18.268;2023-07-30T13:41:50;2.63;;;1.60;;
55497;SDS011;41357;52.806;18.268;2023-07-30T13:44:16;1.80;;;1.33;;
55497;SDS011;41357;52.806;18.268;2023-07-30T13:46:42;1.98;;;1.63;;
55497;SDS011;41357;52.806;18.268;2023-07-30T13:49:09;2.05;;;1.40;;
55497;SDS011;41357;52.806;18.268;2023-07-30T13:51:35;2.35;;;1.48;;
55497;SDS011;41357;52.806;18.268;2023-07-30T13:54:01;2.70;;;1.40;;
55497;SDS011;41357;52.806;18.268;2023-07-30T13:56:28;1.85;;;1.30;;
55497;SDS011;41357;52.806;18.268;2023-07-30T13:58:54;2.08;;;1.77;;
55497;SDS011;41357;52.806;18.268;2023-07-30T14:01:20;2.58;;;1.58;;
55497;SDS011;41357;52.806;18.268;2023-07-30T14:03:47;2.72;;;1.55;;
55497;SDS011;41357;52.806;18.268;2023-07-30T14:06:13;2.35;;;1.58;;
55497;SDS011;41357;52.806;18.268;2023-07-30T14:08:39;5.10;;;1.75;;
55497;SDS011;41357;52.806;18.268;2023-07-30T14:11:05;2.95;;;1.67;;
55497;SDS011;41357;52.806;18.268;2023-07-30T14:13:31;2.45;;;1.60;;
55497;SDS011;41357;52.806;18.268;2023-07-30T14:15:57;2.05;;;1.40;;
55497;SDS011;41357;52.806;18.268;2023-07-30T14:18:24;2.08;;;1.40;;
55497;SDS011;41357;52.806;18.268;2023-07-30T14:20:50;2.40;;;1.58;;
55497;SDS011;41357;52.806;18.268;2023-07-30T14:23:16;4.28;;;1.55;;